createdAt,value
2024-04-07T00:00:30.167Z,0
2024-04-07T00:01:30.183Z,0
2024-04-07T00:02:30.347Z,0
2024-04-07T00:03:30.449Z,0
2024-04-07T00:04:30.586Z,0
2024-04-07T00:05:30.727Z,0
2024-04-07T00:06:30.887Z,0
2024-04-07T00:07:31.043Z,0
2024-04-07T00:08:31.183Z,0
2024-04-07T00:09:31.357Z,0
2024-04-07T00:10:31.495Z,0
2024-04-07T00:11:31.647Z,0
2024-04-07T00:12:31.819Z,0
2024-04-07T00:13:31.951Z,0
2024-04-07T00:14:32.098Z,0
2024-04-07T00:15:32.262Z,0
2024-04-07T00:16:32.412Z,0
2024-04-07T00:17:32.549Z,0
2024-04-07T00:18:32.713Z,0
2024-04-07T00:19:32.856Z,0
2024-04-07T00:20:33.007Z,0
2024-04-07T00:21:33.187Z,0
2024-04-07T00:22:33.334Z,0
2024-04-07T00:23:33.470Z,0
2024-04-07T00:24:33.614Z,0
2024-04-07T00:25:33.786Z,0
2024-04-07T00:26:33.938Z,0
2024-04-07T00:27:34.088Z,0
2024-04-07T00:28:34.247Z,0
2024-04-07T00:29:34.388Z,0
2024-04-07T00:30:34.484Z,0
2024-04-07T00:31:34.636Z,0
2024-04-07T00:32:34.807Z,0
2024-04-07T00:33:34.935Z,0
2024-04-07T00:34:35.081Z,0
2024-04-07T00:35:35.233Z,0
2024-04-07T00:36:35.354Z,0
2024-04-07T00:37:35.506Z,0
2024-04-07T00:38:35.641Z,0
2024-04-07T00:39:35.795Z,0
2024-04-07T00:40:35.946Z,0
2024-04-07T00:41:36.091Z,0
2024-04-07T00:42:36.258Z,0
2024-04-07T00:43:36.419Z,0
2024-04-07T00:44:36.564Z,0
2024-04-07T00:45:36.714Z,0
2024-04-07T00:46:36.849Z,0
2024-04-07T00:47:37.014Z,0
2024-04-07T00:48:37.166Z,0
2024-04-07T00:49:37.314Z,0
2024-04-07T00:50:37.453Z,0
2024-04-07T00:51:37.620Z,0
2024-04-07T00:52:37.774Z,0
2024-04-07T00:53:37.919Z,0
2024-04-07T00:54:38.080Z,0
2024-04-07T00:55:38.275Z,0
2024-04-07T00:56:38.374Z,0
2024-04-07T00:57:38.547Z,0
2024-04-07T00:58:38.742Z,0
2024-04-07T00:59:38.837Z,0
2024-04-07T01:00:39.040Z,0
2024-04-07T01:01:39.225Z,0
2024-04-07T01:02:39.274Z,0
2024-04-07T01:03:39.451Z,0
2024-04-07T01:04:39.602Z,0
2024-04-07T01:05:39.720Z,0
2024-04-07T01:06:39.911Z,0
2024-04-07T01:07:40.103Z,0
2024-04-07T01:08:40.196Z,0
2024-04-07T01:09:40.333Z,0
2024-04-07T01:10:40.456Z,0
2024-04-07T01:11:40.587Z,0
2024-04-07T01:12:40.757Z,0
2024-04-07T01:13:40.922Z,0
2024-04-07T01:14:41.039Z,0
2024-04-07T01:15:41.186Z,0
2024-04-07T01:16:41.383Z,0
2024-04-07T01:17:42.033Z,0
2024-04-07T01:19:42.256Z,0
2024-04-07T01:21:42.126Z,0
2024-04-07T01:23:42.410Z,0
2024-04-07T01:24:42.857Z,0
2024-04-07T01:25:42.668Z,0
2024-04-07T01:26:42.813Z,0
2024-04-07T01:27:42.979Z,0
2024-04-07T01:28:43.179Z,0
2024-04-07T01:29:43.278Z,0
2024-04-07T01:30:43.489Z,0
2024-04-07T01:31:43.618Z,0
2024-04-07T01:32:43.743Z,0
2024-04-07T01:33:43.877Z,0
2024-04-07T01:34:44.069Z,0
2024-04-07T01:35:44.187Z,0
2024-04-07T01:36:44.361Z,0
2024-04-07T01:37:44.549Z,0
2024-04-07T01:38:44.655Z,0
2024-04-07T01:39:44.827Z,0
2024-04-07T01:40:44.951Z,0
2024-04-07T01:41:45.113Z,0
2024-04-07T01:42:45.251Z,0
2024-04-07T01:43:45.430Z,0
2024-04-07T01:44:45.565Z,0
2024-04-07T01:45:45.704Z,0
2024-04-07T01:46:45.883Z,0
2024-04-07T01:47:46.019Z,0
2024-04-07T01:48:46.179Z,0
2024-04-07T01:49:46.391Z,0
2024-04-07T01:50:46.471Z,0
2024-04-07T01:51:46.613Z,0
2024-04-07T01:52:46.790Z,0
2024-04-07T01:53:46.926Z,0
2024-04-07T01:54:47.086Z,0
2024-04-07T01:55:47.336Z,0
2024-04-07T01:56:47.379Z,0
2024-04-07T01:57:47.532Z,0
2024-04-07T01:58:47.742Z,0
2024-04-07T01:59:47.838Z,0
2024-04-07T02:00:47.979Z,0
2024-04-07T02:01:48.195Z,0
2024-04-07T02:02:48.298Z,0
2024-04-07T02:03:48.443Z,0
2024-04-07T02:04:50.350Z,0
2024-04-07T02:05:48.750Z,0
2024-04-07T02:06:48.901Z,0
2024-04-07T02:07:49.123Z,0
2024-04-07T02:08:49.197Z,0
2024-04-07T02:09:49.339Z,0
2024-04-07T02:10:49.534Z,0
2024-04-07T02:11:49.650Z,0
2024-04-07T02:12:49.811Z,0
2024-04-07T02:13:50.003Z,0
2024-04-07T02:14:50.116Z,0
2024-04-07T02:15:50.269Z,0
2024-04-07T02:16:50.460Z,0
2024-04-07T02:17:50.568Z,0
2024-04-07T02:18:50.676Z,0
2024-04-07T02:19:50.928Z,0
2024-04-07T02:20:50.985Z,0
2024-04-07T02:21:51.107Z,0
2024-04-07T02:22:51.328Z,0
2024-04-07T02:23:51.425Z,0
2024-04-07T02:24:51.568Z,0
2024-04-07T02:25:51.752Z,0
2024-04-07T02:26:51.880Z,0
2024-04-07T02:27:52.046Z,0
2024-04-07T02:28:52.183Z,0
2024-04-07T02:29:52.241Z,0
2024-04-07T02:30:52.385Z,0
2024-04-07T02:31:52.523Z,0
2024-04-07T02:32:52.693Z,0
2024-04-07T02:33:52.850Z,0
2024-04-07T02:34:52.998Z,0
2024-04-07T02:35:53.141Z,0
2024-04-07T02:36:53.318Z,0
2024-04-07T02:38:53.563Z,0
2024-04-07T02:39:53.685Z,0
2024-04-07T02:40:53.875Z,0
2024-04-07T02:41:54.012Z,0
2024-04-07T02:42:54.158Z,0
2024-04-07T02:43:54.322Z,0
2024-04-07T02:44:54.464Z,0
2024-04-07T02:45:54.606Z,0
2024-04-07T02:46:54.768Z,0
2024-04-07T02:47:54.917Z,0
2024-04-07T02:48:55.079Z,0
2024-04-07T02:49:55.217Z,0
2024-04-07T02:50:55.373Z,0
2024-04-07T02:51:55.542Z,0
2024-04-07T02:52:55.687Z,0
2024-04-07T02:53:57.460Z,0
2024-04-07T02:54:55.958Z,0
2024-04-07T02:55:56.090Z,0
2024-04-07T02:56:56.247Z,0
2024-04-07T02:57:56.402Z,0
2024-04-07T02:58:56.535Z,0
2024-04-07T02:59:56.685Z,0
2024-04-07T03:00:56.834Z,0
2024-04-07T03:01:56.985Z,0
2024-04-07T03:02:57.149Z,0
2024-04-07T03:03:57.302Z,0
2024-04-07T03:04:57.444Z,0
2024-04-07T03:05:57.615Z,0
2024-04-07T03:06:57.776Z,0
2024-04-07T03:07:57.898Z,0
2024-04-07T03:08:58.063Z,0
2024-04-07T03:09:58.221Z,0
2024-04-07T03:10:58.345Z,0
2024-04-07T03:12:58.652Z,0
2024-04-07T03:13:58.807Z,0
2024-04-07T03:14:58.980Z,0
2024-04-07T03:15:59.095Z,0
2024-04-07T03:17:01.257Z,0
2024-04-07T03:17:59.417Z,0
2024-04-07T03:18:59.565Z,0
2024-04-07T03:19:59.722Z,0
2024-04-07T03:20:59.870Z,0
2024-04-07T03:22:00.055Z,0
2024-04-07T03:23:00.184Z,0
2024-04-07T03:24:00.373Z,0
2024-04-07T03:25:00.464Z,0
2024-04-07T03:26:00.665Z,0
2024-04-07T03:27:00.791Z,0
2024-04-07T03:28:01.438Z,0
2024-04-07T03:30:01.729Z,0
2024-04-07T03:32:01.549Z,0
2024-04-07T03:33:01.690Z,0
2024-04-07T03:34:01.855Z,0
2024-04-07T03:35:01.987Z,0
2024-04-07T03:36:02.138Z,0
2024-04-07T03:37:02.291Z,0
2024-04-07T03:38:02.444Z,0
2024-04-07T03:39:02.611Z,0
2024-04-07T03:40:02.772Z,0
2024-04-07T03:41:02.913Z,0
2024-04-07T03:42:03.058Z,0
2024-04-07T03:43:03.234Z,0
2024-04-07T03:44:03.361Z,0
2024-04-07T03:45:03.507Z,0
2024-04-07T03:46:03.685Z,0
2024-04-07T03:47:03.809Z,0
2024-04-07T03:48:03.965Z,0
2024-04-07T03:49:04.125Z,0
2024-04-07T03:50:04.267Z,0
2024-04-07T03:51:04.425Z,0
2024-04-07T03:52:04.572Z,0
2024-04-07T03:53:04.735Z,0
2024-04-07T03:54:04.884Z,0
2024-04-07T03:55:05.049Z,2
2024-04-07T03:56:05.171Z,2
2024-04-07T03:57:05.395Z,2
2024-04-07T03:58:05.521Z,2
2024-04-07T03:59:06.287Z,2
2024-04-07T04:01:05.978Z,3.04
2024-04-07T04:02:06.143Z,3.04
2024-04-07T04:03:06.288Z,3.04
2024-04-07T04:04:06.452Z,4
2024-04-07T04:05:06.602Z,4
2024-04-07T04:06:06.753Z,5.04
2024-04-07T04:07:06.915Z,6
2024-04-07T04:08:07.089Z,7.04
2024-04-07T04:09:07.159Z,8
2024-04-07T04:10:07.309Z,9.04
2024-04-07T04:11:07.481Z,10
2024-04-07T04:12:07.617Z,12
2024-04-07T04:13:07.778Z,14
2024-04-07T04:14:07.921Z,17.04
2024-04-07T04:15:08.054Z,19.04
2024-04-07T04:16:08.221Z,22
2024-04-07T04:17:08.377Z,26
2024-04-07T04:18:08.531Z,30
2024-04-07T04:19:10.017Z,35.04
2024-04-07T04:20:08.935Z,40
2024-04-07T04:21:09.014Z,45.04
2024-04-07T04:22:09.130Z,52
2024-04-07T04:23:09.285Z,59.04
2024-04-07T04:24:09.447Z,68
2024-04-07T04:25:09.605Z,76
2024-04-07T04:26:09.683Z,86
2024-04-07T04:27:09.794Z,95.04
2024-04-07T04:28:09.940Z,110
2024-04-07T04:29:10.098Z,120
2024-04-07T04:30:10.241Z,130
2024-04-07T04:31:10.391Z,150
2024-04-07T04:32:10.562Z,160
2024-04-07T04:33:10.707Z,180
2024-04-07T04:34:10.857Z,190.08
2024-04-07T04:35:11.016Z,220
2024-04-07T04:36:11.156Z,240
2024-04-07T04:37:11.321Z,270.08
2024-04-07T04:38:11.459Z,300
2024-04-07T04:39:11.602Z,340.16
2024-04-07T04:40:11.783Z,370.24
2024-04-07T04:41:11.921Z,420.16
2024-04-07T04:42:12.065Z,460.16
2024-04-07T04:43:12.219Z,500.16
2024-04-07T04:44:12.393Z,550.08
2024-04-07T04:45:12.522Z,600
2024-04-07T04:46:12.664Z,650.24
2024-04-07T04:47:12.766Z,720
2024-04-07T04:48:12.931Z,780.16
2024-04-07T04:49:13.039Z,830.08
2024-04-07T04:50:13.236Z,890.24
2024-04-07T04:51:13.389Z,950.4
2024-04-07T04:52:13.475Z,1000.32
2024-04-07T04:53:13.637Z,1100.16
2024-04-07T04:54:13.795Z,1100.16
2024-04-07T04:55:13.936Z,1150.08
2024-04-07T04:56:14.079Z,1200
2024-04-07T04:57:14.205Z,1300.48
2024-04-07T04:58:14.313Z,1300.48
2024-04-07T04:59:14.512Z,1400.32
2024-04-07T05:00:14.595Z,1400.32
2024-04-07T05:01:14.751Z,1500.16
2024-04-07T05:02:14.907Z,1500.16
2024-04-07T05:03:15.060Z,1600
2024-04-07T05:04:15.190Z,1701.12
2024-04-07T05:05:15.352Z,1701.12
2024-04-07T05:06:15.493Z,1800.96
2024-04-07T05:07:15.621Z,1900.8
2024-04-07T05:08:15.758Z,2000.64
2024-04-07T05:09:15.931Z,2000.64
2024-04-07T05:10:16.082Z,2100.48
2024-04-07T05:11:16.217Z,2200.32
2024-04-07T05:12:16.359Z,2300.16
2024-04-07T05:13:16.516Z,2400
2024-04-07T05:14:16.672Z,2501.12
2024-04-07T05:15:16.829Z,2600.96
2024-04-07T05:16:16.975Z,2700.8
2024-04-07T05:17:17.130Z,2800.64
2024-04-07T05:18:17.271Z,2900.48
2024-04-07T05:19:17.439Z,3000.32
2024-04-07T05:20:17.587Z,3100.16
2024-04-07T05:21:17.726Z,3302.4
2024-04-07T05:22:17.891Z,3502.08
2024-04-07T05:23:18.034Z,3601.92
2024-04-07T05:24:18.194Z,4001.28
2024-04-07T05:25:18.372Z,4101.12
2024-04-07T05:26:18.459Z,4200.96
2024-04-07T05:27:18.590Z,4300.8
2024-04-07T05:28:18.741Z,4300.8
2024-04-07T05:29:18.914Z,4500.48
2024-04-07T05:30:19.055Z,4500.48
2024-04-07T05:31:19.202Z,4600.32
2024-04-07T05:32:19.300Z,4600.32
2024-04-07T05:33:19.459Z,4600.32
2024-04-07T05:34:19.598Z,4700.16
2024-04-07T05:35:19.703Z,4800
2024-04-07T05:36:19.849Z,5201.92
2024-04-07T05:37:19.994Z,5304.32
2024-04-07T05:38:20.148Z,5401.6
2024-04-07T05:39:20.315Z,5401.6
2024-04-07T05:40:20.467Z,5401.6
2024-04-07T05:41:20.627Z,5504
2024-04-07T05:42:20.780Z,5601.28
2024-04-07T05:43:20.917Z,5703.68
2024-04-07T05:44:21.070Z,5800.96
2024-04-07T05:45:21.238Z,6103.04
2024-04-07T05:46:21.372Z,6604.8
2024-04-07T05:47:21.538Z,7004.16
2024-04-07T05:49:22.412Z,7603.2
2024-04-07T05:51:22.084Z,7900.16
2024-04-07T05:52:22.231Z,8002.56
2024-04-07T05:53:22.393Z,8104.96
2024-04-07T05:54:22.542Z,8304.64
2024-04-07T05:55:22.674Z,8401.92
2024-04-07T05:56:22.845Z,8401.92
2024-04-07T05:57:22.990Z,8401.92
2024-04-07T05:58:23.135Z,8401.92
2024-04-07T05:59:23.298Z,8304.64
2024-04-07T06:00:23.451Z,8304.64
2024-04-07T06:01:23.603Z,8401.92
2024-04-07T06:02:23.742Z,8202.24
2024-04-07T06:03:23.907Z,8601.6
2024-04-07T06:04:24.699Z,8504.319
2024-04-07T06:06:24.356Z,9200.64
2024-04-07T06:07:24.516Z,9400.319
2024-04-07T06:08:24.656Z,9600
2024-04-07T06:09:24.819Z,9502.72
2024-04-07T06:10:24.959Z,9400.319
2024-04-07T06:11:25.117Z,9200.64
2024-04-07T06:12:25.265Z,9103.359
2024-04-07T06:13:25.427Z,9000.96
2024-04-07T06:14:25.750Z,8903.68
2024-04-07T06:15:25.680Z,8504.319
2024-04-07T06:16:25.794Z,8202.24
2024-04-07T06:17:25.931Z,8304.64
2024-04-07T06:18:26.083Z,9200.64
2024-04-07T06:19:26.241Z,9702.399
2024-04-07T06:20:26.405Z,10101.76
2024-04-07T06:21:26.551Z,10004.479
2024-04-07T06:22:26.701Z,10301.439
2024-04-07T06:23:27.641Z,10403.84
2024-04-07T06:25:27.625Z,10101.76
2024-04-07T06:27:27.392Z,9902.08
2024-04-07T06:28:27.538Z,10204.16
2024-04-07T06:29:27.718Z,8903.68
2024-04-07T06:30:27.875Z,8903.68
2024-04-07T06:31:27.996Z,9103.359
2024-04-07T06:32:28.148Z,9804.8
2024-04-07T06:33:28.310Z,10506.24
2024-04-07T06:34:28.462Z,10506.24
2024-04-07T06:35:28.618Z,10506.24
2024-04-07T06:36:28.769Z,9502.72
2024-04-07T06:37:28.925Z,9400.319
2024-04-07T06:38:29.069Z,9400.319
2024-04-07T06:39:29.208Z,10004.479
2024-04-07T06:40:29.376Z,9702.399
2024-04-07T06:41:29.524Z,8903.68
2024-04-07T06:42:29.699Z,9000.96
2024-04-07T06:43:29.780Z,9502.72
2024-04-07T06:44:29.887Z,10204.16
2024-04-07T06:45:30.019Z,11407.359
2024-04-07T06:46:30.197Z,12206.08
2024-04-07T06:47:30.358Z,12605.439
2024-04-07T06:48:30.489Z,12707.84
2024-04-07T06:49:30.629Z,12902.399
2024-04-07T06:50:30.794Z,13004.8
2024-04-07T06:51:30.967Z,13004.8
2024-04-07T06:52:31.081Z,13404.16
2024-04-07T06:53:31.232Z,13905.92
2024-04-07T06:54:31.401Z,13905.92
2024-04-07T06:55:31.548Z,14305.279
2024-04-07T06:56:31.727Z,14100.479
2024-04-07T06:57:31.871Z,13803.52
2024-04-07T06:58:32.000Z,13701.12
2024-04-07T06:59:32.155Z,14704.64
2024-04-07T07:00:32.312Z,15605.76
2024-04-07T07:01:32.451Z,15800.319
2024-04-07T07:02:32.612Z,16107.52
2024-04-07T07:03:32.820Z,16701.44
2024-04-07T07:04:32.902Z,17203.2
2024-04-07T07:05:33.063Z,17203.2
2024-04-07T07:06:33.214Z,17807.36
2024-04-07T07:07:33.366Z,17305.6
2024-04-07T07:08:33.516Z,17704.96
2024-04-07T07:09:33.669Z,17305.6
2024-04-07T07:10:33.834Z,17305.6
2024-04-07T07:11:33.970Z,17807.36
2024-04-07T07:12:34.130Z,18206.72
2024-04-07T07:13:34.337Z,17100.8
2024-04-07T07:14:34.433Z,17203.2
2024-04-07T07:15:34.525Z,15206.399
2024-04-07T07:17:35.541Z,13803.52
2024-04-07T07:19:35.970Z,15605.76
2024-04-07T07:21:36.036Z,16005.12
2024-04-07T07:23:35.757Z,15708.159
2024-04-07T07:24:35.890Z,15001.6
2024-04-07T07:25:36.064Z,13905.92
2024-04-07T07:26:37.809Z,13803.52
2024-04-07T07:27:36.343Z,13905.92
2024-04-07T07:28:36.505Z,13404.16
2024-04-07T07:29:36.644Z,13301.76
2024-04-07T07:30:36.796Z,13506.56
2024-04-07T07:31:36.961Z,13506.56
2024-04-07T07:32:37.112Z,14602.239
2024-04-07T07:33:37.256Z,14704.64
2024-04-07T07:34:37.392Z,13905.92
2024-04-07T07:35:37.570Z,13506.56
2024-04-07T07:36:37.703Z,13209.6
2024-04-07T07:37:37.885Z,13004.8
2024-04-07T07:38:38.007Z,13004.8
2024-04-07T07:39:38.176Z,12503.04
2024-04-07T07:40:38.314Z,12605.439
2024-04-07T07:41:38.430Z,13701.12
2024-04-07T07:42:38.583Z,12605.439
2024-04-07T07:44:38.891Z,12001.279
2024-04-07T07:45:39.021Z,12001.279
2024-04-07T07:46:39.119Z,11909.12
2024-04-07T07:47:39.848Z,12001.279
2024-04-07T07:49:39.587Z,12605.439
2024-04-07T07:50:41.128Z,12503.04
2024-04-07T07:52:40.537Z,13004.8
2024-04-07T07:54:40.848Z,14510.08
2024-04-07T07:55:40.912Z,14510.08
2024-04-07T07:56:41.505Z,14704.64
2024-04-07T07:57:41.337Z,15104
2024-04-07T07:58:41.445Z,15605.76
2024-04-07T07:59:41.550Z,16404.48
2024-04-07T08:00:41.891Z,16209.92
2024-04-07T08:02:41.889Z,18001.92
2024-04-07T08:04:42.111Z,17008.64
2024-04-07T08:06:44.700Z,16906.24
2024-04-07T08:07:42.137Z,16005.12
2024-04-07T08:08:42.261Z,15708.159
2024-04-07T08:09:42.425Z,16302.08
2024-04-07T08:10:42.574Z,15708.159
2024-04-07T08:11:42.729Z,16404.48
2024-04-07T08:12:42.884Z,16906.24
2024-04-07T08:13:43.024Z,17704.96
2024-04-07T08:14:43.149Z,17008.64
2024-04-07T08:15:43.277Z,16701.44
2024-04-07T08:16:43.440Z,18001.92
2024-04-07T08:17:43.581Z,18206.72
2024-04-07T08:18:43.745Z,18206.72
2024-04-07T08:19:43.899Z,18206.72
2024-04-07T08:20:44.022Z,17909.76
2024-04-07T08:21:44.142Z,19005.44
2024-04-07T08:22:44.285Z,18001.92
2024-04-07T08:23:44.441Z,19005.44
2024-04-07T08:24:44.594Z,19005.44
2024-04-07T08:25:44.752Z,18401.28
2024-04-07T08:26:44.916Z,19302.4
2024-04-07T08:27:45.037Z,19005.44
2024-04-07T08:28:45.149Z,18001.92
2024-04-07T08:29:45.298Z,18001.92
2024-04-07T08:30:45.464Z,18800.64
2024-04-07T08:31:45.626Z,19005.44
2024-04-07T08:32:45.765Z,20500.48
2024-04-07T08:33:45.912Z,19609.6
2024-04-07T08:34:46.068Z,18800.64
2024-04-07T08:35:46.217Z,18800.64
2024-04-07T08:36:47.202Z,20500.48
2024-04-07T08:38:47.262Z,18800.64
2024-04-07T08:40:47.923Z,21012.48
2024-04-07T08:42:47.781Z,22016
2024-04-07T08:44:48.122Z,18708.48
2024-04-07T08:46:47.781Z,18708.48
2024-04-07T08:47:47.940Z,17408
2024-04-07T08:48:48.094Z,18206.72
2024-04-07T08:49:48.237Z,18800.64
2024-04-07T08:50:48.394Z,18800.64
2024-04-07T08:51:48.560Z,20500.48
2024-04-07T08:52:48.681Z,22016
2024-04-07T08:53:48.848Z,22507.52
2024-04-07T08:54:48.994Z,22507.52
2024-04-07T08:55:49.154Z,19609.6
2024-04-07T08:56:49.321Z,19906.56
2024-04-07T08:57:49.445Z,17909.76
2024-04-07T08:58:49.564Z,17408
2024-04-07T08:59:50.754Z,18503.68
2024-04-07T09:01:50.943Z,17100.8
2024-04-07T09:03:51.203Z,17909.76
2024-04-07T09:05:50.917Z,17408
2024-04-07T09:06:51.361Z,18104.32
2024-04-07T09:08:51.811Z,18503.68
2024-04-07T09:10:51.882Z,18503.68
2024-04-07T09:12:51.729Z,18503.68
2024-04-07T09:13:51.884Z,16609.28
2024-04-07T09:14:52.035Z,16302.08
2024-04-07T09:15:52.187Z,16302.08
2024-04-07T09:16:52.337Z,16506.88
2024-04-07T09:17:52.455Z,16404.48
2024-04-07T09:18:52.589Z,16701.44
2024-04-07T09:19:52.766Z,17500.16
2024-04-07T09:20:52.893Z,18503.68
2024-04-07T09:21:53.053Z,18503.68
2024-04-07T09:22:53.204Z,18401.28
2024-04-07T09:23:53.352Z,19302.4
2024-04-07T09:24:53.500Z,19507.2
2024-04-07T09:25:53.651Z,19507.2
2024-04-07T09:26:53.794Z,19609.6
2024-04-07T09:27:53.960Z,19005.44
2024-04-07T09:28:54.124Z,19302.4
2024-04-07T09:29:54.253Z,19200
2024-04-07T09:30:54.404Z,19507.2
2024-04-07T09:31:54.514Z,19609.6
2024-04-07T09:32:54.657Z,19200
2024-04-07T09:33:54.820Z,18309.12
2024-04-07T09:34:54.974Z,18001.92
2024-04-07T09:35:55.124Z,17807.36
2024-04-07T09:36:55.282Z,18001.92
2024-04-07T09:37:55.449Z,18001.92
2024-04-07T09:38:55.558Z,18104.32
2024-04-07T09:39:55.757Z,18503.68
2024-04-07T09:40:55.919Z,18708.48
2024-04-07T09:41:56.028Z,19005.44
2024-04-07T09:42:56.195Z,19507.2
2024-04-07T09:43:56.321Z,20008.96
2024-04-07T09:44:56.503Z,19906.56
2024-04-07T09:45:56.640Z,20008.96
2024-04-07T09:46:56.809Z,20500.48
2024-04-07T09:47:56.931Z,20500.48
2024-04-07T09:48:57.092Z,21504
2024-04-07T09:49:57.241Z,21012.48
2024-04-07T09:50:57.416Z,19005.44
2024-04-07T09:51:57.555Z,18708.48
2024-04-07T09:52:57.703Z,18309.12
2024-04-07T09:53:57.864Z,18001.92
2024-04-07T09:54:57.991Z,17807.36
2024-04-07T09:55:58.187Z,17500.16
2024-04-07T09:56:58.325Z,17408
2024-04-07T09:57:58.444Z,17008.64
2024-04-07T09:58:58.614Z,16803.84
2024-04-07T09:59:58.763Z,16609.28
2024-04-07T10:00:58.921Z,16404.48
2024-04-07T10:01:59.055Z,16404.48
2024-04-07T10:02:59.218Z,16404.48
2024-04-07T10:03:59.352Z,16404.48
2024-04-07T10:04:59.537Z,16404.48
2024-04-07T10:05:59.665Z,16404.48
2024-04-07T10:06:59.823Z,16404.48
2024-04-07T10:07:59.998Z,16506.88
2024-04-07T10:09:00.122Z,16609.28
2024-04-07T10:10:00.997Z,16701.44
2024-04-07T10:12:00.576Z,17408
2024-04-07T10:13:00.732Z,17602.56
2024-04-07T10:14:00.841Z,18001.92
2024-04-07T10:15:00.976Z,18001.92
2024-04-07T10:16:01.085Z,18309.12
2024-04-07T10:17:01.235Z,18606.08
2024-04-07T10:18:01.394Z,18401.28
2024-04-07T10:19:01.547Z,18503.68
2024-04-07T10:20:01.715Z,18503.68
2024-04-07T10:21:02.148Z,18606.08
2024-04-07T10:22:02.344Z,18800.64
2024-04-07T10:23:02.598Z,19404.8
2024-04-07T10:25:02.465Z,19804.16
2024-04-07T10:26:02.648Z,19609.6
2024-04-07T10:27:02.709Z,19804.16
2024-04-07T10:28:02.862Z,19302.4
2024-04-07T10:29:03.634Z,19107.84
2024-04-07T10:31:03.739Z,18401.28
2024-04-07T10:32:03.844Z,18309.12
2024-04-07T10:33:03.976Z,18309.12
2024-04-07T10:34:04.071Z,18503.68
2024-04-07T10:35:04.332Z,18309.12
2024-04-07T10:37:04.659Z,18206.72
2024-04-07T10:38:05.069Z,18001.92
2024-04-07T10:39:05.161Z,17704.96
2024-04-07T10:41:04.824Z,17408
2024-04-07T10:43:05.553Z,17100.8
2024-04-07T10:44:05.864Z,17008.64
2024-04-07T10:46:05.922Z,17100.8
2024-04-07T10:47:06.272Z,17100.8
2024-04-07T10:49:06.124Z,17203.2
2024-04-07T10:50:06.578Z,17203.2
2024-04-07T10:52:06.770Z,17203.2
2024-04-07T10:53:06.956Z,17203.2
2024-04-07T10:54:07.921Z,17100.8
2024-04-07T10:55:07.477Z,17100.8
2024-04-07T10:56:07.695Z,17100.8
2024-04-07T10:57:07.664Z,17100.8
2024-04-07T10:58:07.945Z,16906.24
2024-04-07T10:59:08.049Z,16803.84
2024-04-07T11:00:08.144Z,16701.44
2024-04-07T11:01:08.102Z,16609.28
2024-04-07T11:02:08.237Z,16609.28
2024-04-07T11:03:08.329Z,16609.28
2024-04-07T11:04:08.445Z,16701.44
2024-04-07T11:05:08.668Z,16701.44
2024-04-07T11:06:08.623Z,16701.44
2024-04-07T11:07:08.765Z,17100.8
2024-04-07T11:09:09.226Z,17408
2024-04-07T11:10:09.174Z,17500.16
2024-04-07T11:11:09.345Z,17602.56
2024-04-07T11:12:09.506Z,17602.56
2024-04-07T11:14:10.382Z,18206.72
2024-04-07T11:16:10.273Z,18401.28
2024-04-07T11:17:10.300Z,18606.08
2024-04-07T11:18:12.091Z,18606.08
2024-04-07T11:20:10.750Z,18606.08
2024-04-07T11:21:11.222Z,18800.64
2024-04-07T11:23:11.137Z,18903.04
2024-04-07T11:25:11.101Z,18606.08
2024-04-07T11:26:11.567Z,18309.12
2024-04-07T11:28:11.863Z,18503.68
2024-04-07T11:30:12.810Z,19200
2024-04-07T11:32:13.336Z,18903.04
2024-04-07T11:34:12.849Z,18606.08
2024-04-07T11:35:12.809Z,18606.08
2024-04-07T11:36:12.908Z,18503.68
2024-04-07T11:37:13.316Z,18309.12
2024-04-07T11:39:13.482Z,18104.32
2024-04-07T11:41:13.779Z,18206.72
2024-04-07T11:43:14.178Z,18309.12
2024-04-07T11:44:14.191Z,18309.12
2024-04-07T11:45:14.716Z,18309.12
2024-04-07T11:47:15.284Z,18104.32
2024-04-07T11:49:14.876Z,17807.36
2024-04-07T11:50:15.263Z,17602.56
2024-04-07T11:52:14.997Z,17203.2
2024-04-07T11:54:15.274Z,17100.8
2024-04-07T11:55:15.444Z,16701.44
2024-04-07T11:56:15.569Z,16609.28
2024-04-07T11:57:15.719Z,16609.28
2024-04-07T11:58:15.865Z,16506.88
2024-04-07T11:59:16.012Z,16609.28
2024-04-07T12:00:16.156Z,16803.84
2024-04-07T12:01:16.340Z,17008.64
2024-04-07T12:02:16.473Z,17100.8
2024-04-07T12:03:16.564Z,17408
2024-04-07T12:04:16.734Z,17807.36
2024-04-07T12:05:16.942Z,17602.56
2024-04-07T12:06:17.055Z,17704.96
2024-04-07T12:07:17.174Z,17602.56
2024-04-07T12:08:17.351Z,17602.56
2024-04-07T12:09:17.488Z,17602.56
2024-04-07T12:10:17.629Z,17704.96
2024-04-07T12:11:17.801Z,17500.16
2024-04-07T12:12:17.933Z,17408
2024-04-07T12:13:18.114Z,17305.6
2024-04-07T12:14:18.245Z,17500.16
2024-04-07T12:15:18.400Z,17408
2024-04-07T12:16:18.541Z,17203.2
2024-04-07T12:17:18.707Z,17305.6
2024-04-07T12:18:18.853Z,17100.8
2024-04-07T12:19:18.973Z,17008.64
2024-04-07T12:20:19.102Z,16701.44
2024-04-07T12:21:19.289Z,17100.8
2024-04-07T12:22:19.425Z,17008.64
2024-04-07T12:23:19.559Z,17008.64
2024-04-07T12:24:19.717Z,17203.2
2024-04-07T12:25:19.859Z,17305.6
2024-04-07T12:26:20.037Z,17500.16
2024-04-07T12:27:20.172Z,18001.92
2024-04-07T12:28:20.259Z,17807.36
2024-04-07T12:29:20.417Z,17500.16
2024-04-07T12:30:20.577Z,17500.16
2024-04-07T12:31:20.737Z,17807.36
2024-04-07T12:32:20.873Z,18503.68
2024-04-07T12:33:21.004Z,18401.28
2024-04-07T12:34:21.172Z,18606.08
2024-04-07T12:35:21.324Z,18001.92
2024-04-07T12:36:21.481Z,17704.96
2024-04-07T12:37:21.635Z,17602.56
2024-04-07T12:38:21.811Z,18206.72
2024-04-07T12:39:21.937Z,17807.36
2024-04-07T12:40:22.134Z,17704.96
2024-04-07T12:41:22.253Z,16906.24
2024-04-07T12:42:22.384Z,17602.56
2024-04-07T12:43:22.553Z,17408
2024-04-07T12:44:22.690Z,17203.2
2024-04-07T12:45:22.855Z,16701.44
2024-04-07T12:46:22.994Z,15605.76
2024-04-07T12:47:23.149Z,16005.12
2024-04-07T12:48:23.291Z,15708.159
2024-04-07T12:49:23.455Z,15206.399
2024-04-07T12:50:23.620Z,15104
2024-04-07T12:51:23.751Z,15308.8
2024-04-07T12:52:23.918Z,15605.76
2024-04-07T12:53:24.073Z,16209.92
2024-04-07T12:54:24.240Z,16906.24
2024-04-07T12:55:24.423Z,17408
2024-04-07T12:56:24.567Z,18503.68
2024-04-07T12:57:24.711Z,19107.84
2024-04-07T12:58:24.860Z,19302.4
2024-04-07T12:59:25.020Z,19107.84
2024-04-07T13:00:25.177Z,19200
2024-04-07T13:01:25.311Z,19302.4
2024-04-07T13:02:25.467Z,18903.04
2024-04-07T13:03:25.633Z,18001.92
2024-04-07T13:04:25.773Z,16404.48
2024-04-07T13:05:25.879Z,17500.16
2024-04-07T13:06:26.029Z,18503.68
2024-04-07T13:07:26.211Z,19609.6
2024-04-07T13:08:26.339Z,19906.56
2024-04-07T13:09:26.494Z,19200
2024-04-07T13:10:26.643Z,18903.04
2024-04-07T13:11:26.808Z,18800.64
2024-04-07T13:12:26.931Z,19005.44
2024-04-07T13:13:27.101Z,17909.76
2024-04-07T13:14:27.250Z,16107.52
2024-04-07T13:15:27.401Z,16107.52
2024-04-07T13:16:27.542Z,16005.12
2024-04-07T13:17:27.691Z,15800.319
2024-04-07T13:18:27.860Z,15605.76
2024-04-07T13:19:27.998Z,15104
2024-04-07T13:20:28.173Z,15308.8
2024-04-07T13:21:28.297Z,16506.88
2024-04-07T13:22:28.464Z,16609.28
2024-04-07T13:23:28.616Z,16005.12
2024-04-07T13:24:28.767Z,16005.12
2024-04-07T13:25:28.938Z,15400.96
2024-04-07T13:26:29.080Z,15001.6
2024-04-07T13:27:29.225Z,14602.239
2024-04-07T13:28:29.354Z,14602.239
2024-04-07T13:29:29.523Z,14807.04
2024-04-07T13:30:29.690Z,15104
2024-04-07T13:31:29.817Z,15800.319
2024-04-07T13:32:29.974Z,16609.28
2024-04-07T13:33:30.127Z,17100.8
2024-04-07T13:34:30.277Z,17602.56
2024-04-07T13:35:30.423Z,17408
2024-04-07T13:36:30.578Z,17909.76
2024-04-07T13:37:30.731Z,18001.92
2024-04-07T13:38:30.835Z,18001.92
2024-04-07T13:39:30.991Z,17807.36
2024-04-07T13:40:31.143Z,17408
2024-04-07T13:41:31.278Z,17408
2024-04-07T13:42:31.404Z,16906.24
2024-04-07T13:43:31.569Z,16609.28
2024-04-07T13:44:31.718Z,15902.72
2024-04-07T13:45:31.855Z,15605.76
2024-04-07T13:46:32.009Z,15400.96
2024-04-07T13:47:32.154Z,15206.399
2024-04-07T13:48:32.248Z,14909.439